createdAt,value
2022-08-03T00:00:27.776Z,395.00
2022-08-03T00:00:57.892Z,394.00
2022-08-03T00:01:27.999Z,393.00
2022-08-03T00:01:58.122Z,395.00
2022-08-03T00:02:28.220Z,393.00
2022-08-03T00:02:58.436Z,391.00
2022-08-03T00:03:28.465Z,389.00
2022-08-03T00:03:58.459Z,389.00
2022-08-03T00:04:34.120Z,390.00
2022-08-03T00:04:58.586Z,389.00
2022-08-03T00:05:28.695Z,388.00
2022-08-03T00:06:03.940Z,391.00
2022-08-03T00:06:31.630Z,391.00
2022-08-03T00:06:58.829Z,392.00
2022-08-03T00:07:28.941Z,394.00
2022-08-03T00:07:59.055Z,394.00
2022-08-03T00:08:29.242Z,393.00
2022-08-03T00:08:59.101Z,394.00
2022-08-03T00:09:29.212Z,393.00
2022-08-03T00:09:59.231Z,392.00
2022-08-03T00:10:29.337Z,392.00
2022-08-03T00:10:59.451Z,393.00
2022-08-03T00:11:29.555Z,393.00
2022-08-03T00:11:59.668Z,394.00
2022-08-03T00:12:29.778Z,392.00
2022-08-03T00:12:59.888Z,392.00
2022-08-03T00:13:30.017Z,393.00
2022-08-03T00:14:00.001Z,392.00
2022-08-03T00:14:30.114Z,391.00
2022-08-03T00:15:00.224Z,389.00
2022-08-03T00:15:30.335Z,391.00
2022-08-03T00:16:00.447Z,390.00
2022-08-03T00:16:30.559Z,391.00
2022-08-03T00:17:00.673Z,391.00
2022-08-03T00:17:30.783Z,391.00
2022-08-03T00:18:00.792Z,392.00
2022-08-03T00:18:30.928Z,392.00
2022-08-03T00:19:01.123Z,391.00
2022-08-03T00:19:30.991Z,391.00
2022-08-03T00:20:01.107Z,390.00
2022-08-03T00:20:31.220Z,392.00
2022-08-03T00:21:01.334Z,393.00
2022-08-03T00:21:31.439Z,392.00
2022-08-03T00:22:01.559Z,392.00
2022-08-03T00:22:31.666Z,393.00
2022-08-03T00:23:01.777Z,392.00
2022-08-03T00:23:50.879Z,393.00
2022-08-03T00:24:01.907Z,394.00
2022-08-03T00:24:32.020Z,391.00
2022-08-03T00:25:02.135Z,392.00
2022-08-03T00:25:32.245Z,389.00
2022-08-03T00:26:02.359Z,389.00
2022-08-03T00:26:32.471Z,390.00
2022-08-03T00:27:02.579Z,392.00
2022-08-03T00:27:32.766Z,391.00
2022-08-03T00:28:02.727Z,393.00
2022-08-03T00:28:32.720Z,394.00
2022-08-03T00:29:02.830Z,394.00
2022-08-03T00:29:32.938Z,394.00
2022-08-03T00:30:03.051Z,396.00
2022-08-03T00:30:33.161Z,396.00
2022-08-03T00:31:03.274Z,398.00
2022-08-03T00:31:45.036Z,398.00
2022-08-03T00:32:03.315Z,399.00
2022-08-03T00:32:33.451Z,395.00
2022-08-03T00:33:03.468Z,394.00
2022-08-03T00:33:59.673Z,395.00
2022-08-03T00:34:03.696Z,396.00
2022-08-03T00:34:57.150Z,392.00
2022-08-03T00:35:08.378Z,393.00
2022-08-03T00:35:49.264Z,391.00
2022-08-03T00:36:03.671Z,391.00
2022-08-03T00:36:33.775Z,391.00
2022-08-03T00:37:03.852Z,391.00
2022-08-03T00:37:41.722Z,389.00
2022-08-03T00:38:04.036Z,390.00
2022-08-03T00:38:34.119Z,391.00
2022-08-03T00:39:04.197Z,391.00
2022-08-03T00:39:34.268Z,390.00
2022-08-03T00:40:04.341Z,390.00
2022-08-03T00:40:34.393Z,390.00
2022-08-03T00:41:04.468Z,389.00
2022-08-03T00:41:34.544Z,390.00
2022-08-03T00:42:04.610Z,389.00
2022-08-03T00:42:34.680Z,390.00
2022-08-03T00:43:04.753Z,390.00
2022-08-03T00:43:34.831Z,389.00
2022-08-03T00:44:04.908Z,389.00
2022-08-03T00:44:34.977Z,389.00
2022-08-03T00:45:05.049Z,390.00
2022-08-03T00:45:35.123Z,391.00
2022-08-03T00:46:05.206Z,393.00
2022-08-03T00:46:35.277Z,392.00
2022-08-03T00:47:05.389Z,391.00
2022-08-03T00:47:35.501Z,390.00
2022-08-03T00:48:05.622Z,392.00
2022-08-03T00:48:35.746Z,394.00
2022-08-03T00:49:05.784Z,393.00
2022-08-03T00:49:35.843Z,393.00
2022-08-03T00:50:05.771Z,392.00
2022-08-03T00:50:35.886Z,394.00
2022-08-03T00:51:06.022Z,391.00
2022-08-03T00:51:36.005Z,391.00
2022-08-03T00:52:09.486Z,392.00
2022-08-03T00:52:36.116Z,391.00
2022-08-03T00:53:06.228Z,392.00
2022-08-03T00:53:36.372Z,392.00
2022-08-03T00:54:06.356Z,392.00
2022-08-03T00:54:36.468Z,394.00
2022-08-03T00:55:06.582Z,395.00
2022-08-03T00:55:36.695Z,394.00
2022-08-03T00:56:06.807Z,394.00
2022-08-03T00:56:36.919Z,395.00
2022-08-03T00:57:07.029Z,395.00
2022-08-03T00:57:37.141Z,394.00
2022-08-03T00:58:07.249Z,393.00
2022-08-03T00:58:37.385Z,393.00
2022-08-03T00:59:07.372Z,393.00
2022-08-03T00:59:37.485Z,396.00
2022-08-03T01:00:07.600Z,397.00
2022-08-03T01:00:37.710Z,399.00
2022-08-03T01:01:07.901Z,400.00
2022-08-03T01:01:37.882Z,399.00
2022-08-03T01:02:07.981Z,400.00
2022-08-03T01:02:38.089Z,402.00
2022-08-03T01:03:08.133Z,400.00
2022-08-03T01:03:38.273Z,401.00
2022-08-03T01:04:08.259Z,400.00
2022-08-03T01:04:38.373Z,398.00
2022-08-03T01:05:08.490Z,396.00
2022-08-03T01:05:38.617Z,396.00
2022-08-03T01:06:08.709Z,396.00
2022-08-03T01:06:38.823Z,396.00
2022-08-03T01:07:10.766Z,396.00
2022-08-03T01:07:38.929Z,396.00
2022-08-03T01:08:09.036Z,395.00
2022-08-03T01:08:39.172Z,394.00
2022-08-03T01:09:09.161Z,394.00
2022-08-03T01:09:39.269Z,394.00
2022-08-03T01:10:09.383Z,394.00
2022-08-03T01:10:39.493Z,393.00
2022-08-03T01:11:09.606Z,394.00
2022-08-03T01:11:59.866Z,394.00
2022-08-03T01:12:09.797Z,394.00
2022-08-03T01:12:39.759Z,394.00
2022-08-03T01:13:30.582Z,395.00
2022-08-03T01:14:01.861Z,393.00
2022-08-03T01:14:18.808Z,392.00
2022-08-03T01:14:39.912Z,391.00
2022-08-03T01:15:10.035Z,391.00
2022-08-03T01:15:40.091Z,391.00
2022-08-03T01:16:10.206Z,390.00
2022-08-03T01:16:40.318Z,389.00
2022-08-03T01:17:10.438Z,387.00
2022-08-03T01:17:40.549Z,390.00
2022-08-03T01:18:10.555Z,390.00
2022-08-03T01:18:40.672Z,390.00
2022-08-03T01:19:10.784Z,393.00
2022-08-03T01:19:40.897Z,395.00
2022-08-03T01:20:11.028Z,395.00
2022-08-03T01:20:41.133Z,394.00
2022-08-03T01:21:11.126Z,394.00
2022-08-03T01:21:42.158Z,393.00
2022-08-03T01:22:12.176Z,391.00
2022-08-03T01:22:43.019Z,390.00
2022-08-03T01:23:11.600Z,392.00
2022-08-03T01:23:44.577Z,393.00
2022-08-03T01:24:12.649Z,393.00
2022-08-03T01:24:41.747Z,393.00
2022-08-03T01:25:11.823Z,392.00
2022-08-03T01:25:41.806Z,390.00
2022-08-03T01:26:11.924Z,391.00
2022-08-03T01:26:42.032Z,389.00
2022-08-03T01:27:12.146Z,388.00
2022-08-03T01:27:42.257Z,389.00
2022-08-03T01:28:12.367Z,391.00
2022-08-03T01:28:42.477Z,390.00
2022-08-03T01:29:12.591Z,393.00
2022-08-03T01:29:42.691Z,396.00
2022-08-03T01:30:12.808Z,396.00
2022-08-03T01:30:42.919Z,391.00
2022-08-03T01:31:13.035Z,392.00
2022-08-03T01:32:58.849Z,393.00
2022-08-03T01:32:59.598Z,392.00
2022-08-03T01:33:00.248Z,393.00
2022-08-03T01:33:13.201Z,394.00
2022-08-03T01:33:43.316Z,394.00
2022-08-03T01:34:14.575Z,393.00
2022-08-03T01:34:43.533Z,392.00
2022-08-03T01:35:13.652Z,394.00
2022-08-03T01:35:43.755Z,393.00
2022-08-03T01:36:13.865Z,393.00
2022-08-03T01:36:43.958Z,393.00
2022-08-03T01:37:14.033Z,392.00
2022-08-03T01:37:44.105Z,393.00
2022-08-03T01:38:14.178Z,393.00
2022-08-03T01:38:44.255Z,391.00
2022-08-03T01:39:14.339Z,392.00
2022-08-03T01:39:44.409Z,391.00
2022-08-03T01:40:14.491Z,391.00
2022-08-03T01:40:44.615Z,391.00
2022-08-03T01:41:14.662Z,393.00
2022-08-03T01:41:44.741Z,392.00
2022-08-03T01:42:15.132Z,391.00
2022-08-03T01:42:44.918Z,394.00
2022-08-03T01:43:14.982Z,393.00
2022-08-03T01:44:28.487Z,394.00
2022-08-03T01:44:29.283Z,393.00
2022-08-03T01:44:45.302Z,394.00
2022-08-03T01:45:15.375Z,392.00
2022-08-03T01:45:45.447Z,389.00
2022-08-03T01:46:15.516Z,388.00
2022-08-03T01:46:47.627Z,389.00
2022-08-03T01:47:15.711Z,389.00
2022-08-03T01:47:45.826Z,387.00
2022-08-03T01:48:15.940Z,387.00
2022-08-03T01:48:46.058Z,387.00
2022-08-03T01:49:16.135Z,387.00
2022-08-03T01:49:46.220Z,389.00
2022-08-03T01:50:16.222Z,387.00
2022-08-03T01:50:46.224Z,388.00
2022-08-03T01:51:16.335Z,388.00
2022-08-03T01:52:03.057Z,389.00
2022-08-03T01:52:16.737Z,391.00
2022-08-03T01:52:46.556Z,392.00
2022-08-03T01:53:16.672Z,392.00
2022-08-03T01:53:46.780Z,391.00
2022-08-03T01:54:16.895Z,389.00
2022-08-03T01:54:47.003Z,391.00
2022-08-03T01:55:17.118Z,391.00
2022-08-03T01:55:47.228Z,390.00
2022-08-03T01:56:17.348Z,389.00
2022-08-03T01:56:47.457Z,390.00
2022-08-03T01:57:17.561Z,390.00
2022-08-03T01:58:05.282Z,390.00
2022-08-03T01:58:17.680Z,389.00
2022-08-03T01:58:47.801Z,390.00
2022-08-03T01:59:17.787Z,390.00
2022-08-03T01:59:47.898Z,389.00
2022-08-03T02:00:18.017Z,389.00
2022-08-03T02:00:48.131Z,388.00
2022-08-03T02:01:18.359Z,388.00
2022-08-03T02:02:28.054Z,387.00
2022-08-03T02:02:33.357Z,390.00
2022-08-03T02:02:48.430Z,390.00
2022-08-03T02:03:18.237Z,390.00
2022-08-03T02:04:00.243Z,389.00
2022-08-03T02:04:18.372Z,388.00
2022-08-03T02:04:48.476Z,387.00
2022-08-03T02:05:18.594Z,387.00
2022-08-03T02:05:49.929Z,387.00
2022-08-03T02:07:00.194Z,389.00
2022-08-03T02:07:00.237Z,390.00
2022-08-03T02:07:18.737Z,389.00
2022-08-03T02:07:48.857Z,387.00
2022-08-03T02:08:18.966Z,388.00
2022-08-03T02:08:49.082Z,387.00
2022-08-03T02:09:19.194Z,388.00
2022-08-03T02:09:49.309Z,388.00
2022-08-03T02:10:34.941Z,389.00
2022-08-03T02:10:49.443Z,390.00
2022-08-03T02:11:19.553Z,389.00
2022-08-03T02:11:49.663Z,390.00
2022-08-03T02:12:19.774Z,390.00
2022-08-03T02:12:51.245Z,389.00
2022-08-03T02:13:19.980Z,390.00
2022-08-03T02:13:50.094Z,388.00
2022-08-03T02:14:20.089Z,387.00
2022-08-03T02:14:50.200Z,387.00
2022-08-03T02:15:20.333Z,386.00
2022-08-03T02:15:50.431Z,388.00
2022-08-03T02:16:20.540Z,390.00
2022-08-03T02:16:50.660Z,389.00
2022-08-03T02:17:38.474Z,390.00
2022-08-03T02:17:50.785Z,391.00
2022-08-03T02:18:20.894Z,390.00
2022-08-03T02:18:51.014Z,390.00
2022-08-03T02:19:21.001Z,391.00
2022-08-03T02:19:51.117Z,392.00
2022-08-03T02:20:21.108Z,389.00
2022-08-03T02:20:51.219Z,390.00
2022-08-03T02:21:55.898Z,390.00
2022-08-03T02:21:56.637Z,390.00
2022-08-03T02:22:21.293Z,388.00
2022-08-03T02:22:51.407Z,386.00
2022-08-03T02:23:21.519Z,385.00
2022-08-03T02:23:51.640Z,386.00
2022-08-03T02:24:21.749Z,387.00
2022-08-03T02:24:51.857Z,387.00
2022-08-03T02:25:21.966Z,389.00
2022-08-03T02:25:52.087Z,387.00
2022-08-03T02:26:22.202Z,388.00
2022-08-03T02:26:52.196Z,389.00
2022-08-03T02:27:22.309Z,389.00
2022-08-03T02:27:52.425Z,389.00
2022-08-03T02:28:22.536Z,390.00
2022-08-03T02:28:52.654Z,388.00
2022-08-03T02:29:39.348Z,386.00
2022-08-03T02:29:52.771Z,386.00
2022-08-03T02:30:22.887Z,387.00
2022-08-03T02:30:53.785Z,386.00
2022-08-03T02:31:23.044Z,385.00
2022-08-03T02:31:53.160Z,385.00
2022-08-03T02:32:23.271Z,387.00
2022-08-03T02:32:53.384Z,387.00
2022-08-03T02:33:23.497Z,386.00
2022-08-03T02:33:53.611Z,385.00
2022-08-03T02:34:23.722Z,388.00
2022-08-03T02:34:53.834Z,389.00
2022-08-03T02:35:23.941Z,389.00
2022-08-03T02:35:54.054Z,389.00
2022-08-03T02:37:03.249Z,369.00
2022-08-03T02:37:33.196Z,372.00
2022-08-03T02:38:03.266Z,375.00
2022-08-03T02:38:33.355Z,380.00
2022-08-03T02:39:03.430Z,383.00
2022-08-03T02:39:33.503Z,383.00
2022-08-03T02:40:03.575Z,382.00
2022-08-03T02:40:33.646Z,383.00
2022-08-03T02:41:03.717Z,380.00
2022-08-03T02:41:33.788Z,380.00
2022-08-03T02:42:03.885Z,380.00
2022-08-03T02:42:33.963Z,382.00
2022-08-03T02:43:04.033Z,382.00
2022-08-03T02:43:39.197Z,382.00
2022-08-03T02:44:06.424Z,382.00
2022-08-03T02:44:34.264Z,380.00
2022-08-03T02:45:04.333Z,380.00
2022-08-03T02:45:34.405Z,378.00
2022-08-03T02:46:04.474Z,378.00
2022-08-03T02:46:34.546Z,379.00
2022-08-03T02:47:04.660Z,379.00
2022-08-03T02:47:53.269Z,377.00
2022-08-03T02:48:04.787Z,378.00
2022-08-03T02:48:34.897Z,378.00
2022-08-03T02:49:49.694Z,379.00
2022-08-03T02:49:49.822Z,379.00
2022-08-03T02:50:05.119Z,380.00
2022-08-03T02:50:35.086Z,381.00
2022-08-03T02:51:05.195Z,382.00
2022-08-03T02:51:35.309Z,382.00
2022-08-03T02:52:05.419Z,378.00
2022-08-03T02:52:35.537Z,376.00
2022-08-03T02:53:05.644Z,376.00
2022-08-03T02:53:35.642Z,377.00
2022-08-03T02:54:05.758Z,379.00
2022-08-03T02:54:35.870Z,380.00
2022-08-03T02:55:05.984Z,382.00
2022-08-03T02:55:36.093Z,382.00
2022-08-03T02:56:06.105Z,384.00
2022-08-03T02:56:36.217Z,382.00
2022-08-03T02:57:06.328Z,382.00
2022-08-03T02:57:36.445Z,385.00
2022-08-03T02:58:06.551Z,385.00
2022-08-03T02:58:36.663Z,385.00
2022-08-03T02:59:06.778Z,385.00
2022-08-03T02:59:36.822Z,386.00
2022-08-03T03:00:06.929Z,386.00
2022-08-03T03:00:37.083Z,385.00
2022-08-03T03:01:07.183Z,385.00
2022-08-03T03:01:37.190Z,385.00
2022-08-03T03:02:07.305Z,383.00
2022-08-03T03:02:37.422Z,383.00
2022-08-03T03:03:07.412Z,383.00
2022-08-03T03:03:44.600Z,380.00
2022-08-03T03:04:07.474Z,381.00
2022-08-03T03:04:37.815Z,382.00
2022-08-03T03:05:52.697Z,380.00
2022-08-03T03:05:56.235Z,380.00
2022-08-03T03:06:07.587Z,380.00
2022-08-03T03:06:37.701Z,379.00
2022-08-03T03:07:07.717Z,378.00
2022-08-03T03:07:51.907Z,378.00
2022-08-03T03:08:18.622Z,375.00
2022-08-03T03:08:37.810Z,376.00
2022-08-03T03:09:07.887Z,378.00
2022-08-03T03:09:40.442Z,377.00
2022-08-03T03:10:08.081Z,376.00
2022-08-03T03:10:38.193Z,376.00
2022-08-03T03:11:08.302Z,376.00
2022-08-03T03:11:38.421Z,376.00
2022-08-03T03:12:08.526Z,375.00
2022-08-03T03:12:38.637Z,375.00
2022-08-03T03:13:08.744Z,376.00
2022-08-03T03:13:38.851Z,378.00
2022-08-03T03:14:08.962Z,379.00
2022-08-03T03:14:39.075Z,379.00
2022-08-03T03:15:09.177Z,381.00
2022-08-03T03:15:39.289Z,381.00
2022-08-03T03:16:09.401Z,383.00
2022-08-03T03:16:39.509Z,382.00
2022-08-03T03:17:09.621Z,382.00
2022-08-03T03:17:39.731Z,383.00
2022-08-03T03:18:09.839Z,384.00
2022-08-03T03:18:39.952Z,384.00
2022-08-03T03:19:10.057Z,386.00
2022-08-03T03:19:40.175Z,387.00
2022-08-03T03:20:10.284Z,387.00
2022-08-03T03:20:40.394Z,386.00
2022-08-03T03:21:10.503Z,384.00
2022-08-03T03:21:40.613Z,382.00
2022-08-03T03:22:10.720Z,384.00
2022-08-03T03:22:40.831Z,384.00
2022-08-03T03:23:10.879Z,383.00
2022-08-03T03:23:40.989Z,384.00
2022-08-03T03:24:11.101Z,385.00
2022-08-03T03:24:41.216Z,384.00
2022-08-03T03:25:11.327Z,384.00
2022-08-03T03:25:41.442Z,384.00
2022-08-03T03:26:11.546Z,382.00
2022-08-03T03:26:42.479Z,383.00
2022-08-03T03:27:11.767Z,385.00
2022-08-03T03:27:41.775Z,385.00
2022-08-03T03:28:11.783Z,386.00
2022-08-03T03:28:41.896Z,389.00
2022-08-03T03:29:12.006Z,389.00
2022-08-03T03:29:42.116Z,389.00
2022-08-03T03:30:12.110Z,386.00
2022-08-03T03:30:42.220Z,384.00
2022-08-03T03:31:12.329Z,385.00
2022-08-03T03:31:42.445Z,384.00
2022-08-03T03:32:12.647Z,387.00
2022-08-03T03:32:42.549Z,385.00
2022-08-03T03:33:12.667Z,386.00
2022-08-03T03:33:42.785Z,386.00
2022-08-03T03:34:12.787Z,385.00
2022-08-03T03:34:42.895Z,385.00
2022-08-03T03:35:12.918Z,385.00
2022-08-03T03:35:43.026Z,384.00
2022-08-03T03:36:13.136Z,386.00
2022-08-03T03:36:43.235Z,386.00
2022-08-03T03:37:13.297Z,386.00
2022-08-03T03:37:43.371Z,387.00
2022-08-03T03:38:13.442Z,387.00
2022-08-03T03:38:43.510Z,385.00
2022-08-03T03:39:15.667Z,385.00
2022-08-03T03:39:43.659Z,385.00
2022-08-03T03:40:13.729Z,385.00
2022-08-03T03:40:43.809Z,386.00
2022-08-03T03:41:13.875Z,385.00
2022-08-03T03:41:43.951Z,385.00
2022-08-03T03:42:14.220Z,386.00
2022-08-03T03:42:44.045Z,386.00
2022-08-03T03:43:14.120Z,384.00
2022-08-03T03:43:44.190Z,384.00
2022-08-03T03:44:14.262Z,386.00
2022-08-03T03:44:44.336Z,386.00
2022-08-03T03:45:14.407Z,386.00
2022-08-03T03:45:44.478Z,385.00
2022-08-03T03:46:14.545Z,387.00
2022-08-03T03:46:44.636Z,388.00
2022-08-03T03:47:14.743Z,387.00
2022-08-03T03:47:44.813Z,387.00
2022-08-03T03:48:14.835Z,387.00
2022-08-03T03:48:44.943Z,386.00
2022-08-03T03:49:15.129Z,389.00
2022-08-03T03:49:45.100Z,390.00
2022-08-03T03:50:15.201Z,390.00
2022-08-03T03:50:45.312Z,388.00
2022-08-03T03:51:15.417Z,389.00
2022-08-03T03:51:45.531Z,386.00
2022-08-03T03:52:15.814Z,384.00
2022-08-03T03:52:45.704Z,384.00
2022-08-03T03:53:15.918Z,384.00
2022-08-03T03:53:45.810Z,383.00
2022-08-03T03:54:15.927Z,383.00
2022-08-03T03:54:46.041Z,384.00
2022-08-03T03:55:16.155Z,382.00
2022-08-03T03:55:59.317Z,381.00
2022-08-03T03:56:16.282Z,383.00
2022-08-03T03:56:46.395Z,384.00
2022-08-03T03:57:16.508Z,386.00
2022-08-03T03:57:46.616Z,387.00
2022-08-03T03:58:16.724Z,392.00
2022-08-03T03:58:46.826Z,397.00
2022-08-03T03:59:16.940Z,400.00
2022-08-03T03:59:47.060Z,401.00
2022-08-03T04:00:17.172Z,404.00
2022-08-03T04:00:47.374Z,409.00
2022-08-03T04:01:17.425Z,411.00
2022-08-03T04:01:47.387Z,411.00
2022-08-03T04:02:17.702Z,411.00
2022-08-03T04:02:47.461Z,410.00
2022-08-03T04:03:17.573Z,408.00
2022-08-03T04:03:47.680Z,408.00
2022-08-03T04:04:17.794Z,408.00
2022-08-03T04:04:47.912Z,408.00
2022-08-03T04:05:18.029Z,407.00
2022-08-03T04:05:48.016Z,406.00
2022-08-03T04:06:18.127Z,405.00
2022-08-03T04:06:48.240Z,403.00
2022-08-03T04:07:18.358Z,404.00
2022-08-03T04:07:48.463Z,405.00
2022-08-03T04:08:18.579Z,405.00
2022-08-03T04:08:49.460Z,404.00
2022-08-03T04:09:18.752Z,405.00
2022-08-03T04:09:48.864Z,405.00
2022-08-03T04:10:18.982Z,406.00
2022-08-03T04:10:49.093Z,405.00
2022-08-03T04:11:19.209Z,403.00
2022-08-03T04:11:49.317Z,403.00
2022-08-03T04:12:19.427Z,402.00
2022-08-03T04:12:50.534Z,401.00
2022-08-03T04:13:19.559Z,400.00
2022-08-03T04:13:49.670Z,400.00
2022-08-03T04:14:19.783Z,399.00
2022-08-03T04:14:49.893Z,398.00
2022-08-03T04:15:20.014Z,400.00
2022-08-03T04:15:50.007Z,400.00
2022-08-03T04:16:20.123Z,401.00
2022-08-03T04:16:50.248Z,403.00
2022-08-03T04:17:20.231Z,405.00
2022-08-03T04:17:50.309Z,405.00
2022-08-03T04:18:20.416Z,408.00
2022-08-03T04:18:50.536Z,409.00
2022-08-03T04:19:23.335Z,408.00
2022-08-03T04:19:50.737Z,408.00
2022-08-03T04:20:20.875Z,411.00
2022-08-03T04:20:50.861Z,414.00
2022-08-03T04:21:20.975Z,415.00
2022-08-03T04:21:51.085Z,420.00
2022-08-03T04:22:21.204Z,423.00
2022-08-03T04:22:51.318Z,424.00
2022-08-03T04:23:21.428Z,424.00
2022-08-03T04:23:51.546Z,427.00
2022-08-03T04:24:21.655Z,430.00
2022-08-03T04:24:51.768Z,431.00
2022-08-03T04:25:21.883Z,434.00
2022-08-03T04:25:51.991Z,437.00
2022-08-03T04:26:22.103Z,442.00
2022-08-03T04:26:52.874Z,448.00
2022-08-03T04:27:22.318Z,452.00
2022-08-03T04:28:19.718Z,452.00
2022-08-03T04:28:31.406Z,453.00
2022-08-03T04:28:52.446Z,453.00
2022-08-03T04:29:22.577Z,449.00
2022-08-03T04:29:52.574Z,448.00
2022-08-03T04:30:22.719Z,448.00
2022-08-03T04:30:52.724Z,449.00
2022-08-03T04:31:22.840Z,448.00
2022-08-03T04:31:52.953Z,447.00
2022-08-03T04:32:23.066Z,446.00
2022-08-03T04:32:53.060Z,448.00
2022-08-03T04:33:23.176Z,449.00
2022-08-03T04:33:53.286Z,450.00
2022-08-03T04:34:23.408Z,450.00
2022-08-03T04:34:53.399Z,450.00
2022-08-03T04:35:23.520Z,449.00
2022-08-03T04:36:01.070Z,443.00
2022-08-03T04:36:23.537Z,450.00
2022-08-03T04:36:53.620Z,454.00
2022-08-03T04:37:23.696Z,453.00
2022-08-03T04:37:53.768Z,453.00
2022-08-03T04:38:23.838Z,452.00
2022-08-03T04:38:53.912Z,452.00
2022-08-03T04:39:23.991Z,454.00
2022-08-03T04:39:54.058Z,455.00
2022-08-03T04:40:24.113Z,471.00
2022-08-03T04:40:54.223Z,475.00
2022-08-03T04:41:24.299Z,477.00
2022-08-03T04:42:07.329Z,478.00
2022-08-03T04:42:24.510Z,480.00
2022-08-03T04:42:54.577Z,483.00
2022-08-03T04:43:24.654Z,485.00
2022-08-03T04:43:54.736Z,479.00
2022-08-03T04:44:28.475Z,469.00
2022-08-03T04:45:00.446Z,446.00
2022-08-03T04:45:24.915Z,440.00
2022-08-03T04:45:54.989Z,436.00
2022-08-03T04:46:25.058Z,432.00
2022-08-03T04:46:55.168Z,429.00
2022-08-03T04:47:25.283Z,426.00
2022-08-03T04:47:55.410Z,423.00
2022-08-03T04:48:25.404Z,420.00
2022-08-03T04:48:55.422Z,418.00
2022-08-03T04:49:25.508Z,416.00
2022-08-03T04:49:55.521Z,416.00
2022-08-03T04:50:25.514Z,415.00
2022-08-03T04:50:55.650Z,415.00
2022-08-03T04:51:25.630Z,417.00
2022-08-03T04:51:55.751Z,421.00
2022-08-03T04:52:25.738Z,421.00
2022-08-03T04:52:55.861Z,423.00
2022-08-03T04:53:25.960Z,422.00
2022-08-03T04:53:55.966Z,421.00
2022-08-03T04:54:26.086Z,421.00
2022-08-03T04:54:56.087Z,421.00
2022-08-03T04:55:26.082Z,419.00
2022-08-03T04:55:56.193Z,416.00
2022-08-03T04:56:26.208Z,416.00
2022-08-03T04:56:56.317Z,415.00
2022-08-03T04:57:26.460Z,414.00
2022-08-03T04:57:56.476Z,412.00
2022-08-03T04:58:26.465Z,411.00
2022-08-03T04:58:56.579Z,408.00
2022-08-03T04:59:26.690Z,405.00
2022-08-03T05:00:02.193Z,402.00
2022-08-03T05:00:26.826Z,401.00
2022-08-03T05:00:56.938Z,401.00
2022-08-03T05:01:27.122Z,401.00
2022-08-03T05:01:57.177Z,401.00
2022-08-03T05:02:27.189Z,402.00
2022-08-03T05:02:57.306Z,400.00
2022-08-03T05:03:27.412Z,400.00
2022-08-03T05:03:57.526Z,397.00
2022-08-03T05:04:27.679Z,397.00
2022-08-03T05:04:57.718Z,396.00
2022-08-03T05:05:48.968Z,394.00
2022-08-03T05:06:01.586Z,393.00
2022-08-03T05:06:27.725Z,392.00
2022-08-03T05:06:57.830Z,392.00
2022-08-03T05:07:35.688Z,392.00
2022-08-03T05:07:57.896Z,392.00
2022-08-03T05:08:28.470Z,393.00
2022-08-03T05:08:58.078Z,393.00
2022-08-03T05:09:49.942Z,393.00
2022-08-03T05:10:03.063Z,394.00
2022-08-03T05:10:28.256Z,395.00
2022-08-03T05:10:59.310Z,395.00
2022-08-03T05:11:28.323Z,395.00
2022-08-03T05:11:58.322Z,395.00
2022-08-03T05:12:32.597Z,395.00
2022-08-03T05:12:58.516Z,394.00
2022-08-03T05:13:28.629Z,394.00
2022-08-03T05:13:58.747Z,392.00
2022-08-03T05:14:28.853Z,392.00
2022-08-03T05:14:58.985Z,391.00
2022-08-03T05:15:28.969Z,391.00
2022-08-03T05:15:59.079Z,390.00
2022-08-03T05:16:29.201Z,388.00
2022-08-03T05:16:59.307Z,386.00
2022-08-03T05:17:29.425Z,383.00
2022-08-03T05:17:59.420Z,382.00
2022-08-03T05:18:29.442Z,382.00
2022-08-03T05:18:59.553Z,383.00
2022-08-03T05:19:29.666Z,382.00
2022-08-03T05:19:59.826Z,381.00
2022-08-03T05:20:29.883Z,380.00
2022-08-03T05:20:59.877Z,380.00
2022-08-03T05:21:41.756Z,379.00
2022-08-03T05:22:00.016Z,380.00
2022-08-03T05:22:30.127Z,379.00
2022-08-03T05:23:00.264Z,378.00
2022-08-03T05:23:30.267Z,379.00
2022-08-03T05:24:00.390Z,380.00
2022-08-03T05:24:30.392Z,382.00
2022-08-03T05:25:00.390Z,381.00
2022-08-03T05:25:30.503Z,382.00
2022-08-03T05:26:00.489Z,382.00
2022-08-03T05:26:30.686Z,388.00
2022-08-03T05:27:00.686Z,405.00
2022-08-03T05:27:30.800Z,410.00
2022-08-03T05:28:00.800Z,409.00
2022-08-03T05:28:30.924Z,407.00
2022-08-03T05:29:00.926Z,405.00
2022-08-03T05:29:31.037Z,398.00
2022-08-03T05:30:29.760Z,384.00
2022-08-03T05:30:34.089Z,383.00
2022-08-03T05:31:01.276Z,384.00
2022-08-03T05:31:31.391Z,383.00
2022-08-03T05:32:06.251Z,382.00
2022-08-03T05:32:31.512Z,383.00
2022-08-03T05:33:01.515Z,381.00
2022-08-03T05:33:31.626Z,382.00
2022-08-03T05:34:01.739Z,380.00
2022-08-03T05:34:31.850Z,377.00
2022-08-03T05:36:00.766Z,378.00
2022-08-03T05:36:00.873Z,378.00
2022-08-03T05:36:04.275Z,378.00
2022-08-03T05:36:32.012Z,377.00
2022-08-03T05:37:02.091Z,377.00
2022-08-03T05:37:32.164Z,376.00
2022-08-03T05:38:02.195Z,376.00
2022-08-03T05:38:34.932Z,374.00
2022-08-03T05:39:03.009Z,375.00
2022-08-03T05:39:32.374Z,374.00
2022-08-03T05:40:02.458Z,373.00
2022-08-03T05:40:32.551Z,371.00
2022-08-03T05:41:21.375Z,370.00
2022-08-03T05:41:37.272Z,373.00
2022-08-03T05:42:02.766Z,374.00
2022-08-03T05:42:32.838Z,374.00
2022-08-03T05:43:02.909Z,374.00
2022-08-03T05:43:32.983Z,376.00
2022-08-03T05:44:03.079Z,376.00
2022-08-03T05:44:33.163Z,374.00
2022-08-03T05:45:03.248Z,375.00
2022-08-03T05:45:33.347Z,375.00
2022-08-03T05:46:12.208Z,374.00
2022-08-03T05:46:33.429Z,375.00
2022-08-03T05:47:03.415Z,372.00
2022-08-03T05:47:33.533Z,369.00
2022-08-03T05:48:03.645Z,366.00
2022-08-03T05:48:33.768Z,365.00
2022-08-03T05:49:03.923Z,367.00
2022-08-03T05:49:33.947Z,368.00
2022-08-03T05:50:03.946Z,365.00
2022-08-03T05:50:34.072Z,366.00
2022-08-03T05:51:04.063Z,365.00
2022-08-03T05:51:34.175Z,366.00
2022-08-03T05:52:10.171Z,368.00
2022-08-03T05:52:34.298Z,369.00
2022-08-03T05:53:04.362Z,367.00
2022-08-03T05:53:34.473Z,368.00
2022-08-03T05:54:04.587Z,367.00
2022-08-03T05:54:57.487Z,366.00
2022-08-03T05:55:04.719Z,369.00
2022-08-03T05:55:34.722Z,370.00
2022-08-03T05:56:15.143Z,371.00
2022-08-03T05:56:34.720Z,374.00
2022-08-03T05:57:04.832Z,375.00
2022-08-03T05:57:34.947Z,374.00
2022-08-03T05:58:04.996Z,374.00
2022-08-03T05:58:35.107Z,373.00
2022-08-03T05:59:28.721Z,373.00
2022-08-03T05:59:38.504Z,372.00
2022-08-03T06:00:05.267Z,373.00
2022-08-03T06:00:35.389Z,372.00
2022-08-03T06:01:05.576Z,370.00
2022-08-03T06:01:35.689Z,369.00
2022-08-03T06:02:05.781Z,367.00
2022-08-03T06:02:35.771Z,367.00
2022-08-03T06:03:05.883Z,368.00
2022-08-03T06:03:35.995Z,366.00
2022-08-03T06:04:06.141Z,366.00
2022-08-03T06:04:36.122Z,369.00
2022-08-03T06:05:06.244Z,371.00
2022-08-03T06:05:36.353Z,371.00
2022-08-03T06:06:06.367Z,370.00
2022-08-03T06:06:36.479Z,372.00
2022-08-03T06:07:06.596Z,371.00
2022-08-03T06:07:36.599Z,369.00
2022-08-03T06:08:06.711Z,370.00
2022-08-03T06:08:36.827Z,369.00
2022-08-03T06:09:06.941Z,368.00
2022-08-03T06:10:34.083Z,366.00
2022-08-03T06:10:35.912Z,366.00
2022-08-03T06:10:38.278Z,367.00
2022-08-03T06:11:07.103Z,368.00
2022-08-03T06:11:37.210Z,368.00
2022-08-03T06:12:10.102Z,369.00
2022-08-03T06:12:37.348Z,369.00
2022-08-03T06:13:07.454Z,368.00
2022-08-03T06:13:37.568Z,367.00
2022-08-03T06:14:07.675Z,368.00
2022-08-03T06:14:37.804Z,367.00
2022-08-03T06:15:07.886Z,366.00
2022-08-03T06:15:37.781Z,365.00
2022-08-03T06:16:07.774Z,365.00